Urbana, IL (61803)

5:44 PM CDT on March 27, 2015 (GMT -0500)
Crop Sciences Research & Education Center | | Change Station
CLOSE
Current Station
Personal Weather Station
Location: Urbana, IL
Elevation: 730 ft
Nearby Weather Stations

Elev 730 ft 40.09 °N, 88.23 °W | Updated 2 minutes ago

Clear
Clear
32.5 °F
Feels Like 26 °F
N
6.6
Wind Variable Wind from North
Gusts 14.5 mph

Today
High -- | Low -- °F
--% Chance of Precip.
Yesterday
High -- | Low -- °F
Precip. -- in
6:45 AM 7:11 PM
First Quarter, 56% visible
Pressure 30.14 in
Visibility 10.0 miles
Clouds Clear
Windchill 26 °F
Dew Point -20 °F
Humidity 9%
Rainfall -999.00 in
Snow Depth Not available.
UV 2 out of 12
Pollen 5.10 out of 12
Air Quality Not available.
Flu Activity Not available.
METAR KCMI 272153Z 35010KT 10SM CLR 02/M12 A3011 RMK AO2 SLP205 T00221122

More Conditions Fewer Conditions

Pressure 30.14 in
Visibility 10.0 miles
Clouds Clear
Windchill 26 °F
Dew Point -20 °F
Humidity 9%
Rainfall -999.00 in
Snow Depth Not available.
UV 2 out of 12
Pollen 5.10 out of 12
Air Quality Not available.
Flu Activity Not available.
METAR KCMI 272153Z 35010KT 10SM CLR 02/M12 A3011 RMK AO2 SLP205 T00221122

More Conditions Fewer Conditions

10-Day Weather Forecast

Almanac

Astronomy

Mar. 27, 2015 Rise Set
Actual Time
Civil Twilight
Nautical Twilight
Astronomical Twilight
Moon
Length of Visible Light
Length of Day
Tomorrow will be .
, % of the Moon is Illuminated

Today's Extremes

State Highs State Lows

Community

WunderPhotos

Upload Photos

1,808,856 photos uploaded!

WunderBlogs® & News

Nearby

Air Quality

  Air Quality AQ Index Pollutant
Not available.

Snow Depth

Station Depth Elevation

Earthquake Activity

City Distance Mag. Time & Date
Minimum magnitude displayed is 2.5.

Coastal Water Temperatures

Place Temperature

Stations

Nearby Weather Stations

Station Location Temp. Windchill Dew Point Humidity Wind Precip. Elev Updated Type